Time;durP1;ratioP1;P1;durP2;ratioP2;P2;SDS_P1;SDS_P2;PMS_P1;PMS_P2;Temp;Humidity;BMP_temperature;BMP_pressure;BME280_temperature;BME280_humidity;BME280_pressure;Samples;Min_cycle;Max_cycle;Signal;HPM_P1;HPM_P2
2023/10/21 00:02:18;;;;;;;4.32;2.90;;;13.90;78.30;;;;;;5089654;28;20028;-64
2023/10/21 00:04:43;;;;;;;5.22;2.90;;;14.00;78.40;;;;;;5088834;28;20020;-63
2023/10/21 00:07:09;;;;;;;3.22;2.83;;;14.00;78.40;;;;;;5093907;28;20111;-62
2023/10/21 00:09:35;;;;;;;3.40;2.65;;;14.00;78.40;;;;;;5091541;28;20028;-63
2023/10/21 00:12:00;;;;;;;5.15;2.35;;;14.00;78.40;;;;;;5093231;28;20153;-64
2023/10/21 00:14:26;;;;;;;4.28;2.45;;;14.00;78.40;;;;;;5087520;28;20386;-63
2023/10/21 00:16:52;;;;;;;2.97;2.15;;;14.00;78.30;;;;;;5071255;28;20493;-64
2023/10/21 00:19:18;;;;;;;3.35;2.50;;;14.00;78.30;;;;;;5086835;28;20537;-63
2023/10/21 00:21:43;;;;;;;5.80;2.78;;;14.10;78.40;;;;;;5087531;28;20024;-63
2023/10/21 00:24:09;;;;;;;6.75;3.25;;;14.00;78.30;;;;;;5087469;28;20099;-62
2023/10/21 00:26:48;;;;;;;5.63;2.75;;;14.10;78.30;;;;;;5094397;28;20088;-62
2023/10/21 00:29:14;;;;;;;4.15;2.50;;;14.20;78.60;;;;;;5088082;28;20078;-62
2023/10/21 00:31:41;;;;;;;3.50;2.65;;;14.10;78.20;;;;;;5089811;28;20016;-63
2023/10/21 00:34:07;;;;;;;3.33;2.13;;;14.10;78.20;;;;;;5092357;28;20020;-63
2023/10/21 00:36:32;;;;;;;3.22;2.33;;;14.10;78.20;;;;;;5086332;28;20520;-62
2023/10/21 00:38:58;;;;;;;3.67;2.22;;;14.10;78.30;;;;;;5092511;28;20035;-63
2023/10/21 00:41:24;;;;;;;2.60;2.00;;;14.10;78.20;;;;;;5091775;28;20428;-63
2023/10/21 00:43:49;;;;;;;2.58;1.98;;;14.10;78.20;;;;;;5084863;28;20904;-63
2023/10/21 00:46:18;;;;;;;2.65;2.17;;;14.10;78.20;;;;;;5088558;28;20051;-63
2023/10/21 00:48:48;;;;;;;3.83;2.67;;;14.10;78.10;;;;;;5090748;28;20032;-62
2023/10/21 00:51:15;;;;;;;7.07;2.70;;;14.10;78.20;;;;;;5091440;28;20020;-64
2023/10/21 00:53:41;;;;;;;3.38;2.38;;;14.10;78.10;;;;;;5091345;28;20032;-63
2023/10/21 00:56:07;;;;;;;2.97;2.45;;;14.10;78.10;;;;;;5086339;28;20072;-63
2023/10/21 00:58:35;;;;;;;4.07;2.80;;;14.10;78.00;;;;;;5094248;28;20023;-64
2023/10/21 01:01:07;;;;;;;3.05;2.67;;;14.10;78.00;;;;;;5090081;28;20043;-62
2023/10/21 01:03:34;;;;;;;3.78;2.78;;;14.10;77.90;;;;;;5080715;28;20693;-63
2023/10/21 01:06:00;;;;;;;5.80;2.72;;;14.10;78.00;;;;;;5088509;28;20125;-63
2023/10/21 01:08:26;;;;;;;3.25;2.60;;;14.10;78.10;;;;;;5091771;28;20629;-63
2023/10/21 01:10:52;;;;;;;3.88;3.05;;;14.10;78.10;;;;;;5091758;28;20103;-64
2023/10/21 01:13:18;;;;;;;5.15;2.53;;;14.10;78.00;;;;;;5092371;28;20034;-63
2023/10/21 01:15:43;;;;;;;2.55;2.20;;;14.10;78.00;;;;;;5084741;28;20032;-63
2023/10/21 01:18:09;;;;;;;5.05;2.35;;;14.10;77.90;;;;;;5096002;28;20024;-63
2023/10/21 01:20:39;;;;;;;6.43;2.28;;;14.10;77.90;;;;;;5089586;28;20027;-64
2023/10/21 01:23:06;;;;;;;3.35;2.28;;;14.10;77.70;;;;;;5096332;28;20416;-63
2023/10/21 01:25:32;;;;;;;3.15;2.28;;;14.10;77.50;;;;;;5089775;28;20036;-63
2023/10/21 01:27:58;;;;;;;5.07;2.80;;;14.10;77.50;;;;;;5090413;28;20028;-63
2023/10/21 01:30:24;;;;;;;3.13;2.70;;;14.10;77.40;;;;;;5089819;28;20020;-63
2023/10/21 01:32:50;;;;;;;3.63;2.95;;;14.10;77.40;;;;;;5089995;28;20034;-64
2023/10/21 01:35:17;;;;;;;4.35;3.10;;;14.10;77.50;;;;;;5090862;28;20028;-63
2023/10/21 01:37:43;;;;;;;4.20;3.30;;;14.10;77.50;;;;;;5093101;28;20488;-63
2023/10/21 01:40:10;;;;;;;4.10;3.35;;;14.00;77.50;;;;;;5088814;28;20024;-64
2023/10/21 01:42:39;;;;;;;3.20;2.85;;;14.00;77.50;;;;;;5089849;28;20032;-63
2023/10/21 01:45:06;;;;;;;4.95;3.67;;;14.00;77.60;;;;;;5079912;28;20115;-64
2023/10/21 01:47:32;;;;;;;8.75;3.17;;;14.00;77.50;;;;;;5004425;28;20439;-62
2023/10/21 01:49:58;;;;;;;5.45;2.80;;;14.00;77.50;;;;;;5091195;28;20028;-63
2023/10/21 01:52:24;;;;;;;4.30;3.33;;;14.00;77.50;;;;;;5087162;28;20051;-63
2023/10/21 01:54:50;;;;;;;8.32;3.80;;;14.00;77.50;;;;;;5090043;28;20441;-63
2023/10/21 01:57:16;;;;;;;7.05;3.40;;;14.00;77.50;;;;;;5082746;28;20649;-62
2023/10/21 01:59:43;;;;;;;4.78;3.45;;;14.00;77.50;;;;;;5085507;28;20024;-62
2023/10/21 02:02:09;;;;;;;6.47;4.03;;;14.00;77.50;;;;;;5088494;28;20569;-62
2023/10/21 02:04:34;;;;;;;7.00;4.10;;;14.00;77.50;;;;;;5090143;28;20115;-63
2023/10/21 02:07:00;;;;;;;6.35;3.83;;;14.00;77.50;;;;;;5072266;28;20454;-63
2023/10/21 02:09:26;;;;;;;7.60;3.85;;;14.00;77.50;;;;;;5073127;28;20354;-63
2023/10/21 02:11:55;;;;;;;5.82;3.90;;;13.90;77.40;;;;;;5087916;28;20063;-64
2023/10/21 02:14:22;;;;;;;7.18;3.45;;;14.00;77.40;;;;;;5087129;28;20531;-63
2023/10/21 02:16:53;;;;;;;4.80;3.65;;;13.90;77.40;;;;;;5090670;28;20170;-63
2023/10/21 02:19:19;;;;;;;7.85;3.42;;;13.90;77.40;;;;;;5090507;28;20034;-63
2023/10/21 02:21:45;;;;;;;4.78;3.10;;;13.90;77.40;;;;;;5086473;28;20024;-64
2023/10/21 02:24:10;;;;;;;5.20;3.60;;;13.90;77.40;;;;;;5088303;28;20050;-62
2023/10/21 02:26:36;;;;;;;5.43;3.72;;;13.90;77.40;;;;;;5089327;28;20028;-63
2023/10/21 02:29:02;;;;;;;5.05;3.90;;;13.90;77.50;;;;;;5082780;28;20039;-64
2023/10/21 02:31:27;;;;;;;4.55;3.55;;;13.90;77.50;;;;;;5091075;28;20478;-63
2023/10/21 02:33:53;;;;;;;5.35;3.85;;;13.90;77.40;;;;;;5089446;28;20085;-62
2023/10/21 02:36:19;;;;;;;5.63;4.18;;;13.90;77.50;;;;;;5072430;28;20061;-63
2023/10/21 02:38:45;;;;;;;4.95;3.35;;;13.90;77.50;;;;;;5090114;28;20028;-63
2023/10/21 02:41:11;;;;;;;6.78;3.22;;;13.90;77.50;;;;;;5092946;28;20496;-63
2023/10/21 02:43:37;;;;;;;4.95;3.22;;;13.90;77.40;;;;;;5088196;28;20020;-64
2023/10/21 02:46:09;;;;;;;6.18;3.67;;;13.80;77.30;;;;;;4993557;28;20514;-62
2023/10/21 02:48:35;;;;;;;5.85;3.67;;;13.80;77.40;;;;;;5088423;28;20024;-63
2023/10/21 02:51:15;;;;;;;9.23;3.92;;;13.80;77.20;;;;;;5087343;28;20466;-61
2023/10/21 02:53:41;;;;;;;5.25;3.22;;;13.80;77.10;;;;;;5085434;28;20082;-63
2023/10/21 02:56:07;;;;;;;3.90;3.13;;;13.80;76.80;;;;;;5086546;28;20032;-63
2023/10/21 02:58:37;;;;;;;6.55;3.65;;;13.80;76.70;;;;;;5089143;28;20024;-64
2023/10/21 03:01:12;;;;;;;5.10;3.33;;;13.70;76.60;;;;;;5090179;28;20030;-61
2023/10/21 03:03:37;;;;;;;4.50;3.10;;;13.70;76.80;;;;;;5098411;27;20115;-63
2023/10/21 03:06:03;;;;;;;7.85;3.42;;;13.70;76.70;;;;;;5069836;28;20389;-63
2023/10/21 03:08:29;;;;;;;7.85;3.95;;;13.60;76.60;;;;;;5089949;28;20040;-63
2023/10/21 03:10:55;;;;;;;8.40;3.97;;;13.60;76.70;;;;;;5087527;28;20024;-63
2023/10/21 03:13:21;;;;;;;5.65;3.53;;;13.50;76.70;;;;;;5080563;28;20024;-63
2023/10/21 03:15:46;;;;;;;5.35;3.00;;;13.50;76.80;;;;;;5085691;28;20067;-64
2023/10/21 03:18:12;;;;;;;4.03;2.58;;;13.50;76.90;;;;;;5092629;28;20072;-62
2023/10/21 03:20:38;;;;;;;5.50;2.53;;;13.40;76.90;;;;;;5088115;28;20111;-63
2023/10/21 03:23:04;;;;;;;4.18;2.60;;;13.40;77.10;;;;;;5074079;28;20024;-63
2023/10/21 03:25:30;;;;;;;6.35;3.00;;;13.40;77.10;;;;;;5089334;28;20048;-63
2023/10/21 03:27:56;;;;;;;9.05;2.67;;;13.40;77.10;;;;;;5083446;28;20398;-64
2023/10/21 03:30:21;;;;;;;2.97;2.38;;;13.40;77.30;;;;;;5085326;28;20116;-63
2023/10/21 03:32:47;;;;;;;3.53;2.40;;;13.40;77.30;;;;;;5070283;28;20052;-63
2023/10/21 03:35:13;;;;;;;2.78;2.00;;;13.30;77.30;;;;;;5087983;28;20028;-63
2023/10/21 03:37:39;;;;;;;3.42;2.35;;;13.30;78.00;;;;;;5093828;28;20017;-63
2023/10/21 03:40:05;;;;;;;8.82;3.47;;;13.30;77.30;;;;;;5083476;28;20048;-63
2023/10/21 03:42:31;;;;;;;6.35;3.25;;;13.30;77.30;;;;;;5082838;28;20024;-63
2023/10/21 03:44:57;;;;;;;5.90;3.53;;;13.30;77.40;;;;;;5087162;28;20024;-64
2023/10/21 03:47:22;;;;;;;4.50;3.10;;;13.30;77.60;;;;;;5013956;28;20031;-65
2023/10/21 03:49:48;;;;;;;3.83;2.58;;;13.20;77.60;;;;;;5086207;28;20052;-64
2023/10/21 03:52:14;;;;;;;5.50;2.70;;;13.30;77.70;;;;;;5087823;28;20111;-63
2023/10/21 03:54:39;;;;;;;9.43;2.40;;;13.20;77.70;;;;;;5085380;28;20038;-63
2023/10/21 03:57:05;;;;;;;3.17;2.20;;;13.20;77.90;;;;;;5083173;28;20089;-63
2023/10/21 03:59:31;;;;;;;3.88;2.25;;;13.20;77.90;;;;;;5087515;28;20032;-64
2023/10/21 04:01:57;;;;;;;2.13;1.90;;;13.20;78.10;;;;;;5083076;28;20040;-63
2023/10/21 04:04:23;;;;;;;2.15;1.92;;;13.30;78.30;;;;;;5089104;28;20482;-63
2023/10/21 04:06:49;;;;;;;2.40;2.20;;;13.30;78.40;;;;;;5090015;28;20078;-63
2023/10/21 04:09:14;;;;;;;2.75;2.00;;;13.30;78.80;;;;;;5087813;28;20028;-63
2023/10/21 04:11:41;;;;;;;3.00;2.20;;;13.30;78.40;;;;;;5089295;28;20036;-63
2023/10/21 04:14:07;;;;;;;2.72;2.42;;;13.30;78.20;;;;;;5082756;28;20020;-63
2023/10/21 04:16:33;;;;;;;3.38;2.72;;;13.30;78.00;;;;;;5083470;28;20035;-64
2023/10/21 04:18:58;;;;;;;3.10;2.35;;;13.40;77.90;;;;;;5086848;28;20074;-63
2023/10/21 04:21:25;;;;;;;3.35;2.63;;;13.30;77.70;;;;;;5090049;28;20638;-63
2023/10/21 04:23:51;;;;;;;3.55;2.33;;;13.30;77.60;;;;;;5085898;28;20074;-64
2023/10/21 04:26:17;;;;;;;2.33;2.13;;;13.30;77.40;;;;;;5087931;28;20580;-64
2023/10/21 04:28:42;;;;;;;2.92;2.47;;;13.30;77.40;;;;;;5083288;28;20099;-63
2023/10/21 04:31:08;;;;;;;3.45;2.00;;;13.30;77.40;;;;;;5089783;28;20394;-63
2023/10/21 04:33:34;;;;;;;6.85;2.20;;;13.30;77.40;;;;;;5090660;28;20043;-63
2023/10/21 04:36:00;;;;;;;4.45;2.33;;;13.20;77.40;;;;;;5090618;28;20036;-64
2023/10/21 04:38:26;;;;;;;7.47;2.40;;;13.30;77.50;;;;;;5090897;28;20031;-62
2023/10/21 04:40:53;;;;;;;3.38;2.83;;;13.30;77.70;;;;;;5074086;28;20028;-63
2023/10/21 04:43:18;;;;;;;5.63;2.92;;;13.20;77.80;;;;;;5086432;28;20024;-63
2023/10/21 04:45:44;;;;;;;4.35;3.30;;;13.20;78.70;;;;;;5093986;28;20386;-61
2023/10/21 04:48:10;;;;;;;7.20;3.17;;;13.20;77.90;;;;;;5091040;28;20024;-64
2023/10/21 04:50:36;;;;;;;3.92;2.70;;;13.20;77.90;;;;;;5083932;28;20437;-63
2023/10/21 04:53:02;;;;;;;3.22;2.35;;;13.20;77.90;;;;;;5089066;28;20035;-64
2023/10/21 04:55:28;;;;;;;8.23;2.58;;;13.20;77.90;;;;;;5094252;28;20570;-64
2023/10/21 04:57:53;;;;;;;3.30;2.10;;;13.20;77.90;;;;;;5086532;28;20386;-63
2023/10/21 05:00:19;;;;;;;8.00;3.17;;;13.20;77.90;;;;;;5093468;28;20107;-63
2023/10/21 05:02:44;;;;;;;5.60;3.00;;;13.20;78.00;;;;;;5088806;28;20052;-63
2023/10/21 05:05:12;;;;;;;8.90;3.40;;;13.20;78.10;;;;;;5085185;28;20552;-63
2023/10/21 05:07:38;;;;;;;3.75;2.92;;;13.20;78.10;;;;;;5088085;28;20470;-63
2023/10/21 05:10:04;;;;;;;3.45;2.53;;;13.20;78.30;;;;;;5096059;28;20032;-63
2023/10/21 05:12:30;;;;;;;3.92;2.60;;;13.20;78.20;;;;;;5089484;28;20035;-63
2023/10/21 05:14:56;;;;;;;4.93;3.20;;;13.20;78.30;;;;;;5085227;28;20036;-63
2023/10/21 05:17:21;;;;;;;7.07;3.75;;;13.20;78.30;;;;;;5088583;28;20044;-65
2023/10/21 05:19:47;;;;;;;8.35;4.95;;;13.20;78.40;;;;;;5089599;28;20134;-63
2023/10/21 05:22:13;;;;;;;6.25;4.40;;;13.20;78.40;;;;;;5072210;28;20103;-64
2023/10/21 05:24:38;;;;;;;7.90;4.38;;;13.20;78.30;;;;;;5076628;28;20044;-63
2023/10/21 05:27:05;;;;;;;7.30;4.13;;;13.20;78.40;;;;;;5090482;28;20048;-64
2023/10/21 05:29:31;;;;;;;6.47;4.10;;;13.20;78.30;;;;;;5086914;28;20470;-64
2023/10/21 05:31:56;;;;;;;5.35;2.97;;;13.20;78.30;;;;;;5094561;28;20032;-63
2023/10/21 05:34:22;;;;;;;4.63;2.97;;;13.20;78.40;;;;;;5090168;28;20031;-63
2023/10/21 05:36:48;;;;;;;5.22;2.83;;;13.20;78.50;;;;;;5090759;28;20034;-63
2023/10/21 05:39:14;;;;;;;6.68;3.70;;;13.20;78.60;;;;;;5087429;28;20089;-63
2023/10/21 05:41:43;;;;;;;7.55;4.53;;;13.20;78.70;;;;;;5092843;28;20469;-64
2023/10/21 05:44:09;;;;;;;8.20;4.00;;;13.20;79.00;;;;;;5089247;28;20769;-63
2023/10/21 05:46:35;;;;;;;5.82;3.80;;;13.30;78.80;;;;;;5088187;28;20107;-64
2023/10/21 05:49:02;;;;;;;6.55;3.60;;;13.20;79.10;;;;;;5089904;28;20099;-65
2023/10/21 05:51:28;;;;;;;4.75;3.28;;;13.30;79.20;;;;;;5090196;28;20096;-64
2023/10/21 05:53:53;;;;;;;3.78;2.60;;;13.30;79.40;;;;;;5088112;28;20059;-64
2023/10/21 05:56:19;;;;;;;4.95;2.55;;;13.40;79.50;;;;;;5080418;28;20063;-65
2023/10/21 05:58:45;;;;;;;3.95;2.25;;;13.40;79.50;;;;;;5089648;28;20129;-64
2023/10/21 06:01:11;;;;;;;4.28;2.55;;;13.40;79.50;;;;;;5086555;28;20032;-65
2023/10/21 06:03:37;;;;;;;4.45;2.25;;;13.50;79.50;;;;;;5087141;28;20020;-63
2023/10/21 06:06:03;;;;;;;3.78;1.98;;;13.50;79.50;;;;;;5086484;28;20024;-65
2023/10/21 06:08:29;;;;;;;3.72;2.28;;;13.50;79.40;;;;;;5089904;28;20099;-65
2023/10/21 06:10:56;;;;;;;5.63;2.20;;;13.60;79.30;;;;;;5074399;28;20140;-65
2023/10/21 06:13:22;;;;;;;5.28;2.33;;;13.60;79.20;;;;;;5085235;28;20016;-65
2023/10/21 06:15:48;;;;;;;4.28;2.55;;;13.60;79.10;;;;;;5083449;28;20127;-64
2023/10/21 06:18:14;;;;;;;3.70;2.40;;;13.60;79.10;;;;;;5087746;28;20024;-65
2023/10/21 06:20:40;;;;;;;5.43;2.22;;;13.70;79.20;;;;;;5086370;28;20028;-64
2023/10/21 06:23:06;;;;;;;3.42;2.40;;;13.70;80.00;;;;;;5085339;28;20044;-64
2023/10/21 06:25:32;;;;;;;4.00;2.40;;;13.70;79.30;;;;;;5086344;28;20540;-64
2023/10/21 06:28:00;;;;;;;4.65;2.03;;;13.70;79.40;;;;;;5085594;28;20365;-65
2023/10/21 06:30:26;;;;;;;4.13;1.80;;;13.80;79.50;;;;;;5088866;28;20035;-65
2023/10/21 06:32:52;;;;;;;3.67;2.25;;;13.80;79.50;;;;;;5082089;28;20028;-64
2023/10/21 06:35:17;;;;;;;4.50;2.53;;;13.90;79.60;;;;;;5087167;28;20020;-65
2023/10/21 06:37:43;;;;;;;6.18;2.50;;;13.90;79.50;;;;;;5083603;28;20391;-65
2023/10/21 06:40:09;;;;;;;4.47;2.53;;;14.00;79.50;;;;;;5085796;28;20020;-63
2023/10/21 06:42:35;;;;;;;5.38;2.45;;;14.00;79.40;;;;;;5097151;27;20048;-64
2023/10/21 06:45:01;;;;;;;4.25;2.17;;;14.00;79.40;;;;;;5082168;28;20633;-64
2023/10/21 06:47:26;;;;;;;7.65;3.10;;;14.10;79.30;;;;;;5086929;28;20031;-65
2023/10/21 06:49:52;;;;;;;8.90;3.47;;;14.10;79.30;;;;;;5079970;28;20028;-64
2023/10/21 06:52:18;;;;;;;10.07;3.03;;;14.20;79.30;;;;;;5076261;28;20168;-64
2023/10/21 06:54:44;;;;;;;7.35;3.13;;;14.20;79.20;;;;;;5079645;28;20024;-64
2023/10/21 06:57:10;;;;;;;5.70;3.05;;;14.30;79.30;;;;;;5084108;28;20032;-65
2023/10/21 06:59:35;;;;;;;7.53;2.97;;;14.30;79.30;;;;;;5084381;28;20028;-64
2023/10/21 07:02:01;;;;;;;3.28;2.38;;;14.30;79.30;;;;;;5068515;28;20362;-63
2023/10/21 07:04:27;;;;;;;4.68;2.70;;;14.30;79.30;;;;;;5084985;28;20028;-64
2023/10/21 07:06:52;;;;;;;3.17;2.50;;;14.40;79.30;;;;;;5060523;28;20128;-64
2023/10/21 07:09:18;;;;;;;3.10;2.03;;;14.40;79.30;;;;;;5085996;28;20012;-64
2023/10/21 07:11:44;;;;;;;3.20;1.70;;;14.50;79.30;;;;;;5084573;28;20024;-64
2023/10/21 07:14:12;;;;;;;2.17;1.50;;;14.50;79.20;;;;;;5088201;28;20066;-64
2023/10/21 07:16:38;;;;;;;1.60;1.40;;;14.50;79.10;;;;;;5079774;28;20064;-63
2023/10/21 07:19:04;;;;;;;2.75;1.30;;;14.50;79.00;;;;;;5083326;28;20039;-64
2023/10/21 07:21:30;;;;;;;2.92;1.52;;;14.60;78.90;;;;;;5086519;28;20020;-63
2023/10/21 07:23:56;;;;;;;2.30;1.50;;;14.60;78.90;;;;;;5069509;28;20697;-64
2023/10/21 07:26:22;;;;;;;2.50;1.60;;;14.60;78.90;;;;;;5083408;28;20036;-65
2023/10/21 07:28:48;;;;;;;7.00;1.33;;;14.70;79.70;;;;;;5084025;28;20028;-64
2023/10/21 07:31:14;;;;;;;3.35;1.40;;;14.70;79.00;;;;;;5080205;28;20508;-64
2023/10/21 07:33:39;;;;;;;1.30;1.15;;;14.70;79.10;;;;;;5089976;28;20386;-64
2023/10/21 07:36:05;;;;;;;4.72;1.73;;;14.70;79.10;;;;;;5086740;28;20044;-66
2023/10/21 07:38:31;;;;;;;2.25;1.65;;;14.80;79.20;;;;;;5090332;28;20024;-65
2023/10/21 07:40:56;;;;;;;1.55;1.40;;;14.80;79.20;;;;;;5087216;28;20036;-65
2023/10/21 07:43:22;;;;;;;2.10;1.27;;;14.90;79.30;;;;;;5085467;28;20036;-63
2023/10/21 07:45:48;;;;;;;1.75;1.13;;;15.00;79.40;;;;;;5025056;28;20034;-64
2023/10/21 07:48:14;;;;;;;1.45;1.35;;;15.10;79.50;;;;;;5083160;28;20020;-64
2023/10/21 07:50:41;;;;;;;1.83;1.42;;;15.10;80.10;;;;;;5089513;28;20119;-64
2023/10/21 07:53:07;;;;;;;1.63;1.33;;;15.20;79.20;;;;;;5085501;28;20425;-65
2023/10/21 07:55:33;;;;;;;4.60;1.40;;;15.30;79.20;;;;;;5092157;28;20039;-64
2023/10/21 07:57:59;;;;;;;4.05;1.30;;;15.40;79.30;;;;;;5070048;28;20032;-65
2023/10/21 08:00:28;;;;;;;2.40;1.42;;;15.50;79.30;;;;;;5085945;28;20073;-64
2023/10/21 08:02:54;;;;;;;2.97;1.52;;;15.60;79.20;;;;;;5087272;28;20024;-64
2023/10/21 08:05:21;;;;;;;3.28;1.60;;;15.60;79.10;;;;;;5088960;28;20043;-65
2023/10/21 08:07:46;;;;;;;1.77;1.40;;;15.70;79.10;;;;;;5089276;28;20063;-63
2023/10/21 08:10:12;;;;;;;2.08;1.30;;;15.80;79.10;;;;;;5090950;28;20066;-64
2023/10/21 08:12:39;;;;;;;2.63;1.45;;;15.90;79.00;;;;;;5094409;28;20032;-64
2023/10/21 08:15:07;;;;;;;3.65;1.60;;;15.90;78.80;;;;;;5091776;28;20522;-64
2023/10/21 08:17:33;;;;;;;7.25;2.53;;;16.10;78.70;;;;;;5096383;28;20486;-64
2023/10/21 08:19:59;;;;;;;4.03;2.00;;;16.10;78.40;;;;;;5097191;28;20024;-64
2023/10/21 08:22:24;;;;;;;2.58;2.00;;;16.20;78.20;;;;;;5089527;28;20089;-65
2023/10/21 08:24:50;;;;;;;4.68;2.70;;;16.30;78.00;;;;;;5089709;28;20074;-64
2023/10/21 08:27:16;;;;;;;8.57;2.22;;;16.40;77.90;;;;;;5088803;28;20028;-64
2023/10/21 08:29:42;;;;;;;16.42;2.70;;;16.40;77.70;;;;;;5087414;28;20031;-64
2023/10/21 08:32:07;;;;;;;4.72;1.75;;;16.50;77.60;;;;;;5094441;28;20039;-64
2023/10/21 08:34:36;;;;;;;3.08;1.45;;;16.60;77.60;;;;;;5091599;28;20039;-65
2023/10/21 08:37:05;;;;;;;3.45;1.52;;;16.60;77.20;;;;;;5091931;28;20058;-65
2023/10/21 08:39:30;;;;;;;2.28;1.33;;;16.70;77.00;;;;;;5095357;28;20016;-64
2023/10/21 08:41:58;;;;;;;3.05;1.27;;;16.70;77.10;;;;;;5094911;28;20039;-64
2023/10/21 08:44:24;;;;;;;4.60;1.33;;;16.80;76.70;;;;;;5093004;28;20020;-64
2023/10/21 08:46:54;;;;;;;3.22;1.20;;;16.90;76.70;;;;;;5010219;28;20028;-64
2023/10/21 08:49:20;;;;;;;1.58;1.00;;;16.90;76.40;;;;;;5090611;28;20028;-64
2023/10/21 08:51:47;;;;;;;5.55;1.30;;;17.00;76.10;;;;;;5092357;28;20023;-64
2023/10/21 08:54:14;;;;;;;22.08;2.90;;;17.00;76.10;;;;;;5097454;28;20019;-64
2023/10/21 08:56:39;;;;;;;2.78;1.58;;;17.10;75.90;;;;;;5088591;28;20039;-65
2023/10/21 08:59:05;;;;;;;7.57;1.70;;;17.10;75.90;;;;;;5090661;28;20020;-65
2023/10/21 09:01:31;;;;;;;3.13;1.10;;;17.20;76.10;;;;;;5093807;28;20121;-65
2023/10/21 09:03:57;;;;;;;9.93;1.88;;;17.30;76.00;;;;;;5093658;28;20032;-64
2023/10/21 09:06:23;;;;;;;3.97;1.50;;;17.50;75.40;;;;;;5089713;28;20322;-64
2023/10/21 09:08:49;;;;;;;2.67;1.45;;;17.50;75.00;;;;;;5093938;28;20036;-64
2023/10/21 09:11:17;;;;;;;5.65;1.70;;;17.60;74.60;;;;;;5092569;28;20035;-64
2023/10/21 09:13:43;;;;;;;6.63;1.80;;;17.60;74.00;;;;;;5089857;28;20024;-64
2023/10/21 09:16:26;;;;;;;2.30;1.40;;;17.60;73.90;;;;;;5088227;28;20035;-63
2023/10/21 09:19:07;;;;;;;3.92;1.80;;;17.70;73.80;;;;;;5096667;28;20076;-65
2023/10/21 09:21:37;;;;;;;2.17;1.30;;;17.80;73.90;;;;;;5094156;28;20058;-64
2023/10/21 09:24:11;;;;;;;7.03;1.50;;;17.80;73.90;;;;;;5073806;28;20040;-64
2023/10/21 09:26:42;;;;;;;7.70;1.73;;;17.80;73.30;;;;;;5087763;28;20427;-64
2023/10/21 09:29:13;;;;;;;2.20;1.30;;;17.90;73.40;;;;;;5078205;28;20047;-65
2023/10/21 09:31:48;;;;;;;2.92;1.30;;;18.00;73.60;;;;;;5082589;28;20458;-65
2023/10/21 09:34:25;;;;;;;2.50;1.40;;;18.10;73.30;;;;;;5088937;28;20024;-65
2023/10/21 09:36:55;;;;;;;9.70;1.75;;;18.10;73.30;;;;;;5090384;28;20556;-63
2023/10/21 09:39:22;;;;;;;5.93;1.35;;;18.20;72.30;;;;;;5090407;28;20028;-64
2023/10/21 09:41:48;;;;;;;3.45;1.50;;;18.20;72.30;;;;;;5086983;28;20024;-64
2023/10/21 09:44:16;;;;;;;3.15;1.33;;;18.20;71.80;;;;;;5091260;28;20036;-64
2023/10/21 09:46:44;;;;;;;2.40;1.00;;;18.20;71.40;;;;;;5004238;28;20032;-65
2023/10/21 09:49:13;;;;;;;1.70;1.10;;;18.20;71.70;;;;;;5088907;28;20028;-65
2023/10/21 09:51:49;;;;;;;3.85;1.13;;;18.20;70.70;;;;;;5092576;28;20035;-64
2023/10/21 09:54:26;;;;;;;1.92;1.38;;;18.20;70.40;;;;;;5085749;28;20355;-64
2023/10/21 09:56:54;;;;;;;4.20;1.48;;;18.10;70.10;;;;;;5087504;28;20055;-64
2023/10/21 09:59:21;;;;;;;2.85;1.10;;;18.10;70.60;;;;;;5089226;28;20028;-64
2023/10/21 10:01:48;;;;;;;3.15;1.50;;;18.00;70.50;;;;;;5090442;28;20071;-66
2023/10/21 10:04:14;;;;;;;2.80;1.30;;;18.00;70.70;;;;;;5091379;28;20513;-64
2023/10/21 10:06:40;;;;;;;2.47;1.42;;;18.00;70.80;;;;;;5089861;28;20031;-64
2023/10/21 10:09:07;;;;;;;3.88;1.20;;;18.00;71.00;;;;;;5096495;28;20111;-64
2023/10/21 10:11:36;;;;;;;2.80;1.52;;;18.00;71.10;;;;;;5088808;28;20069;-65
2023/10/21 10:14:02;;;;;;;2.88;1.33;;;18.00;71.10;;;;;;5091034;28;20028;-64
2023/10/21 10:16:29;;;;;;;2.78;1.30;;;18.00;71.10;;;;;;5086066;28;20055;-64
2023/10/21 10:18:56;;;;;;;3.00;1.40;;;18.10;70.80;;;;;;5089784;28;20023;-64
2023/10/21 10:21:22;;;;;;;3.22;1.45;;;18.10;70.70;;;;;;5089649;28;20101;-64
2023/10/21 10:23:51;;;;;;;2.97;1.20;;;18.10;70.50;;;;;;5084667;28;20079;-64
2023/10/21 10:26:37;;;;;;;2.05;1.17;;;18.10;70.10;;;;;;5089461;28;20082;-63
2023/10/21 10:29:25;;;;;;;7.75;1.65;;;18.10;70.00;;;;;;5087021;28;20028;-64
2023/10/21 10:32:11;;;;;;;2.67;1.10;;;18.10;70.60;;;;;;5081926;28;20036;-65
2023/10/21 10:34:48;;;;;;;1.38;1.00;;;18.20;70.80;;;;;;5088520;28;20036;-64
2023/10/21 10:37:26;;;;;;;1.40;1.02;;;18.20;70.50;;;;;;5087582;28;20051;-64
2023/10/21 10:39:54;;;;;;;2.95;1.20;;;18.20;70.30;;;;;;5089978;28;20077;-65
2023/10/21 10:42:20;;;;;;;3.08;1.20;;;18.30;70.50;;;;;;5093832;28;20070;-65
2023/10/21 10:44:47;;;;;;;17.45;1.90;;;18.30;71.00;;;;;;5088027;28;20027;-64
2023/10/21 10:47:12;;;;;;;3.53;1.23;;;18.30;70.20;;;;;;4998090;28;20028;-64
2023/10/21 10:49:56;;;;;;;2.90;1.08;;;18.40;70.10;;;;;;5085687;28;20493;-64
2023/10/21 10:52:35;;;;;;;2.20;1.10;;;18.40;69.40;;;;;;5086209;28;20429;-63
2023/10/21 10:55:04;;;;;;;5.93;1.00;;;18.40;69.60;;;;;;5082242;28;20078;-65
2023/10/21 10:57:30;;;;;;;4.43;1.50;;;18.50;69.80;;;;;;5089154;28;20044;-64
2023/10/21 10:59:56;;;;;;;5.20;1.33;;;18.50;69.70;;;;;;5090339;28;20024;-63
2023/10/21 11:02:23;;;;;;;2.60;0.93;;;18.50;69.60;;;;;;5090127;28;20035;-64
2023/10/21 11:04:49;;;;;;;1.42;0.90;;;18.50;69.70;;;;;;5085926;28;20473;-65
2023/10/21 11:07:19;;;;;;;1.60;1.23;;;18.60;70.00;;;;;;5070579;28;20027;-64
2023/10/21 11:09:45;;;;;;;1.42;1.02;;;18.60;69.90;;;;;;5089806;28;20023;-66
2023/10/21 11:12:14;;;;;;;2.03;1.38;;;18.60;70.00;;;;;;5089559;28;20038;-65
2023/10/21 11:14:40;;;;;;;2.95;1.40;;;18.60;69.80;;;;;;5083342;28;20021;-65
2023/10/21 11:17:06;;;;;;;2.08;1.20;;;18.70;69.80;;;;;;5086106;28;20089;-65
2023/10/21 11:19:32;;;;;;;4.32;1.40;;;18.70;69.90;;;;;;5090439;28;20564;-65
2023/10/21 11:21:58;;;;;;;4.63;1.50;;;18.80;70.00;;;;;;5092247;28;20027;-63
2023/10/21 11:24:26;;;;;;;5.68;1.50;;;18.80;69.70;;;;;;5089855;28;20051;-64
2023/10/21 11:26:52;;;;;;;3.95;2.03;;;18.80;69.60;;;;;;5090036;28;20032;-65
2023/10/21 11:29:19;;;;;;;3.85;1.60;;;18.80;69.40;;;;;;5089675;28;20024;-64
2023/10/21 11:31:45;;;;;;;3.15;1.50;;;18.90;69.60;;;;;;5080800;28;20521;-64
2023/10/21 11:34:16;;;;;;;1.55;1.15;;;18.90;69.40;;;;;;5079369;28;20021;-65
2023/10/21 11:36:48;;;;;;;1.60;1.10;;;18.90;69.30;;;;;;5090245;28;20035;-65
2023/10/21 11:39:17;;;;;;;1.05;0.90;;;18.90;69.40;;;;;;5083404;28;20028;-65
2023/10/21 11:41:50;;;;;;;1.50;1.00;;;18.90;69.20;;;;;;5085041;28;20028;-64
2023/10/21 11:44:17;;;;;;;3.70;1.02;;;18.90;69.60;;;;;;5087687;28;20032;-64
2023/10/21 11:46:43;;;;;;;2.75;1.00;;;18.80;69.80;;;;;;5020094;28;20432;-65
2023/10/21 11:49:15;;;;;;;1.77;0.85;;;18.80;70.10;;;;;;5072773;28;20081;-63
2023/10/21 11:51:49;;;;;;;0.98;0.80;;;18.80;70.10;;;;;;5087376;28;20027;-63
2023/10/21 11:54:33;;;;;;;2.80;1.40;;;18.80;69.80;;;;;;5084722;28;20051;-63
2023/10/21 12:13:19;;;;;;;6.53;1.30;;;18.80;69.10;;;;;;5092837;28;20374;-64
2023/10/21 12:16:29;;;;;;;2.42;0.90;;;18.70;69.30;;;;;;5091440;28;20098;-63
2023/10/21 12:23:59;;;;;;;1.75;1.00;;;18.60;69.40;;;;;;5090872;28;20036;-64
2023/10/21 12:39:52;;;;;;;2.05;1.30;;;18.60;70.10;;;;;;5046379;28;20029;-62
2023/10/21 12:42:43;;;;;;;2.05;1.27;;;18.50;69.60;;;;;;5046070;28;20029;-65
2023/10/21 12:45:12;;;;;;;3.75;1.42;;;18.50;69.50;;;;;;5044364;28;20329;-62
2023/10/21 12:47:42;;;;;;;1.75;1.35;;;18.50;69.80;;;;;;5044939;28;20391;-64
2023/10/21 12:50:12;;;;;;;4.20;1.90;;;18.40;69.90;;;;;;5044462;28;20029;-63
2023/10/21 12:52:39;;;;;;;5.72;1.48;;;18.40;69.70;;;;;;5044221;28;20035;-64
2023/10/21 12:55:10;;;;;;;3.50;1.65;;;18.40;69.80;;;;;;5043222;28;20025;-64
2023/10/21 12:57:36;;;;;;;3.67;1.77;;;18.40;69.80;;;;;;5042665;28;20044;-62
2023/10/21 13:00:04;;;;;;;2.10;1.42;;;18.40;70.10;;;;;;5045413;28;20036;-63
2023/10/21 13:02:35;;;;;;;2.20;1.50;;;18.40;69.80;;;;;;5043818;28;20120;-64
2023/10/21 13:05:03;;;;;;;3.30;1.48;;;18.40;69.90;;;;;;5049179;28;20110;-63
2023/10/21 13:07:31;;;;;;;3.28;1.55;;;18.40;70.00;;;;;;5045820;28;20040;-63
2023/10/21 13:09:57;;;;;;;3.20;1.67;;;18.30;70.10;;;;;;5042311;28;20024;-64
2023/10/21 13:12:23;;;;;;;2.67;1.55;;;18.30;70.10;;;;;;5084939;28;20044;-65
2023/10/21 13:14:49;;;;;;;3.33;1.80;;;18.30;70.00;;;;;;5089863;28;20020;-63
2023/10/21 13:17:14;;;;;;;4.65;2.17;;;18.20;70.50;;;;;;5091546;28;20139;-63
2023/10/21 13:19:40;;;;;;;1.98;1.45;;;18.20;69.70;;;;;;5091800;28;20023;-62
2023/10/21 13:22:06;;;;;;;5.68;1.45;;;18.10;70.00;;;;;;5068483;28;20036;-64